sensor_id;sensor_type;location;lat;lon;timestamp;P1;durP1;ratioP1;P2;durP2;ratioP2
68942;SDS011;60852;52.190;4.422;2023-04-28T00:00:48;9.86;;;9.81;;
68942;SDS011;60852;52.190;4.422;2023-04-28T00:03:13;10.08;;;9.98;;
68942;SDS011;60852;52.190;4.422;2023-04-28T00:05:39;10.44;;;10.29;;
68942;SDS011;60852;52.190;4.422;2023-04-28T00:08:05;9.90;;;9.78;;
68942;SDS011;60852;52.190;4.422;2023-04-28T00:10:31;10.04;;;10.04;;
68942;SDS011;60852;52.190;4.422;2023-04-28T00:12:56;10.50;;;10.50;;
68942;SDS011;60852;52.190;4.422;2023-04-28T00:15:21;10.31;;;10.26;;
68942;SDS011;60852;52.190;4.422;2023-04-28T00:17:47;9.97;;;9.95;;
68942;SDS011;60852;52.190;4.422;2023-04-28T00:20:13;9.84;;;9.84;;
68942;SDS011;60852;52.190;4.422;2023-04-28T00:22:38;10.34;;;10.28;;
68942;SDS011;60852;52.190;4.422;2023-04-28T00:25:06;10.82;;;10.62;;
68942;SDS011;60852;52.190;4.422;2023-04-28T00:27:32;10.53;;;10.51;;
68942;SDS011;60852;52.190;4.422;2023-04-28T00:29:58;10.22;;;10.21;;
68942;SDS011;60852;52.190;4.422;2023-04-28T00:32:23;10.63;;;10.63;;
68942;SDS011;60852;52.190;4.422;2023-04-28T00:34:49;10.71;;;10.59;;
68942;SDS011;60852;52.190;4.422;2023-04-28T00:37:15;11.41;;;11.08;;
68942;SDS011;60852;52.190;4.422;2023-04-28T00:39:41;10.94;;;10.79;;
68942;SDS011;60852;52.190;4.422;2023-04-28T00:42:11;11.36;;;11.06;;
68942;SDS011;60852;52.190;4.422;2023-04-28T00:44:39;10.94;;;10.76;;
68942;SDS011;60852;52.190;4.422;2023-04-28T00:47:05;10.80;;;10.77;;
68942;SDS011;60852;52.190;4.422;2023-04-28T00:49:33;11.21;;;11.13;;
68942;SDS011;60852;52.190;4.422;2023-04-28T00:52:06;10.97;;;10.74;;
68942;SDS011;60852;52.190;4.422;2023-04-28T00:54:34;11.14;;;10.94;;
68942;SDS011;60852;52.190;4.422;2023-04-28T00:57:00;10.99;;;10.90;;
68942;SDS011;60852;52.190;4.422;2023-04-28T00:59:30;11.58;;;11.36;;
68942;SDS011;60852;52.190;4.422;2023-04-28T01:01:55;11.45;;;11.37;;
68942;SDS011;60852;52.190;4.422;2023-04-28T01:04:21;11.92;;;11.64;;
68942;SDS011;60852;52.190;4.422;2023-04-28T01:06:51;11.38;;;11.20;;
68942;SDS011;60852;52.190;4.422;2023-04-28T01:09:20;11.25;;;11.11;;
68942;SDS011;60852;52.190;4.422;2023-04-28T01:11:45;11.45;;;11.22;;
68942;SDS011;60852;52.190;4.422;2023-04-28T01:14:11;11.67;;;11.41;;
68942;SDS011;60852;52.190;4.422;2023-04-28T01:16:37;11.48;;;11.46;;
68942;SDS011;60852;52.190;4.422;2023-04-28T01:19:03;11.32;;;11.32;;
68942;SDS011;60852;52.190;4.422;2023-04-28T01:21:32;11.27;;;11.21;;
68942;SDS011;60852;52.190;4.422;2023-04-28T01:23:59;10.87;;;10.80;;
68942;SDS011;60852;52.190;4.422;2023-04-28T01:26:25;11.32;;;11.23;;
68942;SDS011;60852;52.190;4.422;2023-04-28T01:28:51;11.59;;;11.46;;
68942;SDS011;60852;52.190;4.422;2023-04-28T01:31:16;11.12;;;11.04;;
68942;SDS011;60852;52.190;4.422;2023-04-28T01:33:42;11.38;;;11.37;;
68942;SDS011;60852;52.190;4.422;2023-04-28T01:36:07;11.04;;;10.86;;
68942;SDS011;60852;52.190;4.422;2023-04-28T01:38:34;11.89;;;11.44;;
68942;SDS011;60852;52.190;4.422;2023-04-28T01:40:59;11.77;;;11.44;;
68942;SDS011;60852;52.190;4.422;2023-04-28T01:43:27;11.72;;;11.56;;
68942;SDS011;60852;52.190;4.422;2023-04-28T01:45:53;11.48;;;11.24;;
68942;SDS011;60852;52.190;4.422;2023-04-28T01:48:18;11.17;;;11.13;;
68942;SDS011;60852;52.190;4.422;2023-04-28T01:50:44;11.13;;;10.91;;
68942;SDS011;60852;52.190;4.422;2023-04-28T01:53:10;10.96;;;10.76;;
68942;SDS011;60852;52.190;4.422;2023-04-28T01:55:36;11.28;;;11.07;;
68942;SDS011;60852;52.190;4.422;2023-04-28T01:58:03;10.84;;;10.68;;
68942;SDS011;60852;52.190;4.422;2023-04-28T02:00:28;10.97;;;10.78;;
68942;SDS011;60852;52.190;4.422;2023-04-28T02:02:54;11.26;;;10.94;;
68942;SDS011;60852;52.190;4.422;2023-04-28T02:05:19;11.38;;;11.01;;
68942;SDS011;60852;52.190;4.422;2023-04-28T02:07:45;11.19;;;10.89;;
68942;SDS011;60852;52.190;4.422;2023-04-28T02:10:11;11.12;;;10.88;;
68942;SDS011;60852;52.190;4.422;2023-04-28T02:12:36;11.00;;;10.81;;
68942;SDS011;60852;52.190;4.422;2023-04-28T02:15:02;10.68;;;10.63;;
68942;SDS011;60852;52.190;4.422;2023-04-28T02:17:31;11.20;;;11.02;;
68942;SDS011;60852;52.190;4.422;2023-04-28T02:19:56;10.94;;;10.87;;
68942;SDS011;60852;52.190;4.422;2023-04-28T02:22:22;11.38;;;11.09;;
68942;SDS011;60852;52.190;4.422;2023-04-28T02:24:48;10.96;;;10.74;;
68942;SDS011;60852;52.190;4.422;2023-04-28T02:27:14;10.91;;;10.60;;
68942;SDS011;60852;52.190;4.422;2023-04-28T02:29:39;11.32;;;10.93;;
68942;SDS011;60852;52.190;4.422;2023-04-28T02:32:05;10.79;;;10.49;;
68942;SDS011;60852;52.190;4.422;2023-04-28T02:34:31;10.75;;;10.45;;
68942;SDS011;60852;52.190;4.422;2023-04-28T02:36:56;10.41;;;10.25;;
68942;SDS011;60852;52.190;4.422;2023-04-28T02:39:22;10.00;;;10.00;;
68942;SDS011;60852;52.190;4.422;2023-04-28T02:41:49;10.02;;;9.98;;
68942;SDS011;60852;52.190;4.422;2023-04-28T02:44:16;10.30;;;10.27;;
68942;SDS011;60852;52.190;4.422;2023-04-28T02:46:42;10.40;;;10.22;;
68942;SDS011;60852;52.190;4.422;2023-04-28T02:49:07;10.39;;;10.19;;
68942;SDS011;60852;52.190;4.422;2023-04-28T02:51:32;10.53;;;10.17;;
68942;SDS011;60852;52.190;4.422;2023-04-28T02:53:58;10.21;;;9.93;;
68942;SDS011;60852;52.190;4.422;2023-04-28T02:56:23;9.76;;;9.76;;
68942;SDS011;60852;52.190;4.422;2023-04-28T02:58:49;9.64;;;9.59;;
68942;SDS011;60852;52.190;4.422;2023-04-28T03:01:14;9.96;;;9.85;;
68942;SDS011;60852;52.190;4.422;2023-04-28T03:03:40;10.04;;;9.85;;
68942;SDS011;60852;52.190;4.422;2023-04-28T03:06:06;10.19;;;10.05;;
68942;SDS011;60852;52.190;4.422;2023-04-28T03:08:31;9.81;;;9.64;;
68942;SDS011;60852;52.190;4.422;2023-04-28T03:10:57;10.04;;;9.74;;
68942;SDS011;60852;52.190;4.422;2023-04-28T03:13:22;10.23;;;10.03;;
68942;SDS011;60852;52.190;4.422;2023-04-28T03:15:48;10.15;;;9.86;;
68942;SDS011;60852;52.190;4.422;2023-04-28T03:18:13;9.84;;;9.57;;
68942;SDS011;60852;52.190;4.422;2023-04-28T03:20:39;9.59;;;9.52;;
68942;SDS011;60852;52.190;4.422;2023-04-28T03:23:04;9.57;;;9.53;;
68942;SDS011;60852;52.190;4.422;2023-04-28T03:25:30;9.68;;;9.45;;
68942;SDS011;60852;52.190;4.422;2023-04-28T03:27:55;9.40;;;9.24;;
68942;SDS011;60852;52.190;4.422;2023-04-28T03:30:21;9.39;;;9.31;;
68942;SDS011;60852;52.190;4.422;2023-04-28T03:32:46;9.79;;;9.67;;
68942;SDS011;60852;52.190;4.422;2023-04-28T03:35:12;9.23;;;9.20;;
68942;SDS011;60852;52.190;4.422;2023-04-28T03:37:37;9.18;;;9.18;;
68942;SDS011;60852;52.190;4.422;2023-04-28T03:40:03;9.36;;;9.36;;
68942;SDS011;60852;52.190;4.422;2023-04-28T03:42:29;9.24;;;9.21;;
68942;SDS011;60852;52.190;4.422;2023-04-28T03:44:54;9.33;;;9.33;;
68942;SDS011;60852;52.190;4.422;2023-04-28T03:47:19;9.36;;;9.27;;
68942;SDS011;60852;52.190;4.422;2023-04-28T03:49:45;9.43;;;9.39;;
68942;SDS011;60852;52.190;4.422;2023-04-28T03:52:10;9.41;;;9.32;;
68942;SDS011;60852;52.190;4.422;2023-04-28T03:54:36;9.58;;;9.50;;
68942;SDS011;60852;52.190;4.422;2023-04-28T03:57:01;10.18;;;10.07;;
68942;SDS011;60852;52.190;4.422;2023-04-28T03:59:28;9.95;;;9.87;;
68942;SDS011;60852;52.190;4.422;2023-04-28T04:01:54;13.19;;;12.92;;
68942;SDS011;60852;52.190;4.422;2023-04-28T04:04:19;11.04;;;10.52;;
68942;SDS011;60852;52.190;4.422;2023-04-28T04:06:44;10.08;;;9.95;;
68942;SDS011;60852;52.190;4.422;2023-04-28T04:09:10;9.48;;;9.40;;
68942;SDS011;60852;52.190;4.422;2023-04-28T04:11:36;9.95;;;9.84;;
68942;SDS011;60852;52.190;4.422;2023-04-28T04:14:01;9.86;;;9.75;;
68942;SDS011;60852;52.190;4.422;2023-04-28T04:16:27;9.37;;;9.31;;
68942;SDS011;60852;52.190;4.422;2023-04-28T04:18:53;10.47;;;10.29;;
68942;SDS011;60852;52.190;4.422;2023-04-28T04:21:18;10.47;;;10.39;;
68942;SDS011;60852;52.190;4.422;2023-04-28T04:23:44;10.34;;;10.27;;
68942;SDS011;60852;52.190;4.422;2023-04-28T04:26:09;9.87;;;9.78;;
68942;SDS011;60852;52.190;4.422;2023-04-28T04:28:35;9.87;;;9.87;;
68942;SDS011;60852;52.190;4.422;2023-04-28T04:31:00;9.75;;;9.73;;
68942;SDS011;60852;52.190;4.422;2023-04-28T04:33:27;9.79;;;9.79;;
68942;SDS011;60852;52.190;4.422;2023-04-28T04:35:53;9.77;;;9.76;;
68942;SDS011;60852;52.190;4.422;2023-04-28T04:38:18;10.79;;;10.57;;
68942;SDS011;60852;52.190;4.422;2023-04-28T04:40:44;10.60;;;10.37;;
68942;SDS011;60852;52.190;4.422;2023-04-28T04:43:09;10.86;;;10.58;;
68942;SDS011;60852;52.190;4.422;2023-04-28T04:45:34;11.03;;;10.82;;
68942;SDS011;60852;52.190;4.422;2023-04-28T04:48:00;11.42;;;11.33;;
68942;SDS011;60852;52.190;4.422;2023-04-28T04:50:26;11.19;;;11.14;;
68942;SDS011;60852;52.190;4.422;2023-04-28T04:52:52;10.59;;;10.52;;
68942;SDS011;60852;52.190;4.422;2023-04-28T04:55:20;11.32;;;11.05;;
68942;SDS011;60852;52.190;4.422;2023-04-28T04:57:46;10.80;;;10.78;;
68942;SDS011;60852;52.190;4.422;2023-04-28T05:00:12;10.75;;;10.63;;
68942;SDS011;60852;52.190;4.422;2023-04-28T05:02:37;11.06;;;11.02;;
68942;SDS011;60852;52.190;4.422;2023-04-28T05:05:03;11.58;;;11.39;;
68942;SDS011;60852;52.190;4.422;2023-04-28T05:07:29;11.09;;;11.07;;
68942;SDS011;60852;52.190;4.422;2023-04-28T05:09:55;11.68;;;11.48;;
68942;SDS011;60852;52.190;4.422;2023-04-28T05:12:20;11.80;;;11.71;;
68942;SDS011;60852;52.190;4.422;2023-04-28T05:14:46;12.73;;;12.41;;
68942;SDS011;60852;52.190;4.422;2023-04-28T05:17:11;13.51;;;13.15;;
68942;SDS011;60852;52.190;4.422;2023-04-28T05:19:37;14.14;;;13.80;;
68942;SDS011;60852;52.190;4.422;2023-04-28T05:22:02;14.21;;;14.03;;
68942;SDS011;60852;52.190;4.422;2023-04-28T05:24:28;13.94;;;13.64;;
68942;SDS011;60852;52.190;4.422;2023-04-28T05:26:55;13.97;;;13.78;;
68942;SDS011;60852;52.190;4.422;2023-04-28T05:29:23;14.45;;;14.05;;
68942;SDS011;60852;52.190;4.422;2023-04-28T05:31:48;14.27;;;14.20;;
68942;SDS011;60852;52.190;4.422;2023-04-28T05:34:14;14.62;;;14.43;;
68942;SDS011;60852;52.190;4.422;2023-04-28T05:36:39;14.71;;;14.70;;
68942;SDS011;60852;52.190;4.422;2023-04-28T05:39:05;15.44;;;14.92;;
68942;SDS011;60852;52.190;4.422;2023-04-28T05:41:31;14.78;;;14.08;;
68942;SDS011;60852;52.190;4.422;2023-04-28T05:43:58;16.24;;;15.77;;
68942;SDS011;60852;52.190;4.422;2023-04-28T05:46:23;17.27;;;16.85;;
68942;SDS011;60852;52.190;4.422;2023-04-28T05:48:49;16.19;;;16.06;;
68942;SDS011;60852;52.190;4.422;2023-04-28T05:51:14;14.23;;;14.23;;
68942;SDS011;60852;52.190;4.422;2023-04-28T05:53:40;17.43;;;17.12;;
68942;SDS011;60852;52.190;4.422;2023-04-28T05:56:06;16.33;;;16.09;;
68942;SDS011;60852;52.190;4.422;2023-04-28T05:58:31;15.15;;;15.05;;
68942;SDS011;60852;52.190;4.422;2023-04-28T06:00:57;15.31;;;15.30;;
68942;SDS011;60852;52.190;4.422;2023-04-28T06:03:23;15.56;;;15.56;;
68942;SDS011;60852;52.190;4.422;2023-04-28T06:05:48;15.55;;;15.45;;
68942;SDS011;60852;52.190;4.422;2023-04-28T06:08:14;15.56;;;15.51;;
68942;SDS011;60852;52.190;4.422;2023-04-28T06:10:39;15.87;;;15.57;;
68942;SDS011;60852;52.190;4.422;2023-04-28T06:13:05;16.03;;;15.81;;
68942;SDS011;60852;52.190;4.422;2023-04-28T06:15:31;16.02;;;15.82;;
68942;SDS011;60852;52.190;4.422;2023-04-28T06:17:57;16.14;;;16.10;;
68942;SDS011;60852;52.190;4.422;2023-04-28T06:20:26;15.48;;;15.48;;
68942;SDS011;60852;52.190;4.422;2023-04-28T06:22:51;16.49;;;16.20;;
68942;SDS011;60852;52.190;4.422;2023-04-28T06:25:17;17.23;;;16.83;;
68942;SDS011;60852;52.190;4.422;2023-04-28T06:27:42;17.14;;;16.71;;
68942;SDS011;60852;52.190;4.422;2023-04-28T06:30:08;16.11;;;15.98;;
68942;SDS011;60852;52.190;4.422;2023-04-28T06:32:33;16.77;;;16.54;;
68942;SDS011;60852;52.190;4.422;2023-04-28T06:34:59;17.53;;;17.37;;
68942;SDS011;60852;52.190;4.422;2023-04-28T06:37:24;16.77;;;16.67;;
68942;SDS011;60852;52.190;4.422;2023-04-28T06:39:50;17.63;;;17.27;;
68942;SDS011;60852;52.190;4.422;2023-04-28T06:42:16;17.98;;;17.56;;
68942;SDS011;60852;52.190;4.422;2023-04-28T06:44:43;17.29;;;17.15;;
68942;SDS011;60852;52.190;4.422;2023-04-28T06:47:09;17.70;;;17.31;;
68942;SDS011;60852;52.190;4.422;2023-04-28T06:49:35;18.19;;;17.84;;
68942;SDS011;60852;52.190;4.422;2023-04-28T06:52:00;18.22;;;17.79;;
68942;SDS011;60852;52.190;4.422;2023-04-28T06:54:26;17.97;;;17.89;;
68942;SDS011;60852;52.190;4.422;2023-04-28T06:56:51;18.61;;;18.54;;
68942;SDS011;60852;52.190;4.422;2023-04-28T06:59:17;18.71;;;18.35;;
68942;SDS011;60852;52.190;4.422;2023-04-28T07:01:42;19.42;;;19.15;;
68942;SDS011;60852;52.190;4.422;2023-04-28T07:04:08;19.05;;;18.86;;
68942;SDS011;60852;52.190;4.422;2023-04-28T07:06:33;20.01;;;19.55;;
68942;SDS011;60852;52.190;4.422;2023-04-28T07:08:58;19.70;;;19.46;;
68942;SDS011;60852;52.190;4.422;2023-04-28T07:11:24;19.08;;;19.02;;
68942;SDS011;60852;52.190;4.422;2023-04-28T07:13:49;19.70;;;19.32;;
68942;SDS011;60852;52.190;4.422;2023-04-28T07:16:16;19.81;;;19.63;;
68942;SDS011;60852;52.190;4.422;2023-04-28T07:18:42;21.12;;;20.67;;
68942;SDS011;60852;52.190;4.422;2023-04-28T07:21:08;20.12;;;19.87;;
68942;SDS011;60852;52.190;4.422;2023-04-28T07:23:33;20.70;;;20.29;;
68942;SDS011;60852;52.190;4.422;2023-04-28T07:25:58;21.08;;;20.71;;
68942;SDS011;60852;52.190;4.422;2023-04-28T07:28:24;21.77;;;21.13;;
68942;SDS011;60852;52.190;4.422;2023-04-28T07:30:50;20.74;;;20.43;;
68942;SDS011;60852;52.190;4.422;2023-04-28T07:33:16;20.84;;;20.72;;
68942;SDS011;60852;52.190;4.422;2023-04-28T07:35:41;21.40;;;20.78;;
68942;SDS011;60852;52.190;4.422;2023-04-28T07:38:07;21.35;;;20.82;;
68942;SDS011;60852;52.190;4.422;2023-04-28T07:40:32;20.97;;;20.51;;
68942;SDS011;60852;52.190;4.422;2023-04-28T07:42:58;20.75;;;20.56;;
68942;SDS011;60852;52.190;4.422;2023-04-28T07:45:23;22.17;;;21.61;;
68942;SDS011;60852;52.190;4.422;2023-04-28T07:47:50;21.81;;;21.18;;
68942;SDS011;60852;52.190;4.422;2023-04-28T07:50:15;21.78;;;21.00;;
68942;SDS011;60852;52.190;4.422;2023-04-28T07:52:41;20.09;;;19.90;;
68942;SDS011;60852;52.190;4.422;2023-04-28T07:55:07;20.64;;;20.45;;
68942;SDS011;60852;52.190;4.422;2023-04-28T07:57:33;21.49;;;21.37;;
68942;SDS011;60852;52.190;4.422;2023-04-28T07:59:59;22.04;;;21.71;;
68942;SDS011;60852;52.190;4.422;2023-04-28T08:02:25;22.71;;;22.00;;
68942;SDS011;60852;52.190;4.422;2023-04-28T08:04:51;22.18;;;21.81;;
68942;SDS011;60852;52.190;4.422;2023-04-28T08:07:17;22.11;;;21.92;;
68942;SDS011;60852;52.190;4.422;2023-04-28T08:09:42;22.20;;;21.79;;
68942;SDS011;60852;52.190;4.422;2023-04-28T08:12:11;22.79;;;22.68;;
68942;SDS011;60852;52.190;4.422;2023-04-28T08:14:38;24.20;;;23.52;;
68942;SDS011;60852;52.190;4.422;2023-04-28T08:17:04;23.48;;;22.98;;
68942;SDS011;60852;52.190;4.422;2023-04-28T08:19:29;23.04;;;22.81;;
68942;SDS011;60852;52.190;4.422;2023-04-28T08:21:55;24.71;;;24.02;;
68942;SDS011;60852;52.190;4.422;2023-04-28T08:24:20;23.71;;;23.64;;
68942;SDS011;60852;52.190;4.422;2023-04-28T08:26:46;23.26;;;23.15;;
68942;SDS011;60852;52.190;4.422;2023-04-28T08:29:11;24.93;;;24.75;;
68942;SDS011;60852;52.190;4.422;2023-04-28T08:31:37;26.22;;;25.37;;
68942;SDS011;60852;52.190;4.422;2023-04-28T08:34:02;26.15;;;25.31;;
68942;SDS011;60852;52.190;4.422;2023-04-28T08:36:28;23.99;;;23.91;;
68942;SDS011;60852;52.190;4.422;2023-04-28T08:38:56;24.71;;;24.49;;
68942;SDS011;60852;52.190;4.422;2023-04-28T08:41:29;25.63;;;25.16;;
68942;SDS011;60852;52.190;4.422;2023-04-28T08:43:57;25.41;;;25.21;;
68942;SDS011;60852;52.190;4.422;2023-04-28T08:46:22;25.18;;;24.93;;
68942;SDS011;60852;52.190;4.422;2023-04-28T08:48:51;25.25;;;24.99;;
68942;SDS011;60852;52.190;4.422;2023-04-28T08:51:27;25.74;;;25.66;;
68942;SDS011;60852;52.190;4.422;2023-04-28T08:53:58;26.97;;;26.22;;
68942;SDS011;60852;52.190;4.422;2023-04-28T08:56:31;26.11;;;25.75;;
68942;SDS011;60852;52.190;4.422;2023-04-28T08:59:02;26.14;;;25.84;;
68942;SDS011;60852;52.190;4.422;2023-04-28T09:01:29;26.88;;;26.56;;
68942;SDS011;60852;52.190;4.422;2023-04-28T09:03:56;26.85;;;26.80;;
68942;SDS011;60852;52.190;4.422;2023-04-28T09:06:22;28.36;;;27.93;;
68942;SDS011;60852;52.190;4.422;2023-04-28T09:08:47;28.66;;;28.10;;
68942;SDS011;60852;52.190;4.422;2023-04-28T09:11:13;27.22;;;26.82;;
68942;SDS011;60852;52.190;4.422;2023-04-28T09:13:39;29.91;;;29.08;;
68942;SDS011;60852;52.190;4.422;2023-04-28T09:16:05;29.21;;;28.65;;
68942;SDS011;60852;52.190;4.422;2023-04-28T09:18:31;29.39;;;28.97;;
68942;SDS011;60852;52.190;4.422;2023-04-28T09:23:28;29.48;;;29.26;;
68942;SDS011;60852;52.190;4.422;2023-04-28T09:26:01;29.79;;;29.49;;
68942;SDS011;60852;52.190;4.422;2023-04-28T09:28:32;32.02;;;31.45;;
68942;SDS011;60852;52.190;4.422;2023-04-28T09:30:59;30.04;;;29.78;;
68942;SDS011;60852;52.190;4.422;2023-04-28T09:33:25;30.89;;;30.80;;
68942;SDS011;60852;52.190;4.422;2023-04-28T09:35:51;31.01;;;30.61;;
68942;SDS011;60852;52.190;4.422;2023-04-28T09:38:18;32.41;;;31.80;;
68942;SDS011;60852;52.190;4.422;2023-04-28T09:40:48;31.75;;;31.62;;
68942;SDS011;60852;52.190;4.422;2023-04-28T09:45:50;32.61;;;32.34;;
68942;SDS011;60852;52.190;4.422;2023-04-28T09:48:16;34.08;;;33.52;;
68942;SDS011;60852;52.190;4.422;2023-04-28T09:50:51;34.05;;;32.52;;
68942;SDS011;60852;52.190;4.422;2023-04-28T09:53:18;33.04;;;32.46;;
68942;SDS011;60852;52.190;4.422;2023-04-28T09:55:47;32.55;;;32.04;;
68942;SDS011;60852;52.190;4.422;2023-04-28T09:58:16;32.05;;;31.31;;
68942;SDS011;60852;52.190;4.422;2023-04-28T10:00:44;32.04;;;31.28;;
68942;SDS011;60852;52.190;4.422;2023-04-28T10:03:15;30.43;;;30.01;;
68942;SDS011;60852;52.190;4.422;2023-04-28T10:05:43;30.24;;;29.72;;
68942;SDS011;60852;52.190;4.422;2023-04-28T10:08:10;27.83;;;27.54;;
68942;SDS011;60852;52.190;4.422;2023-04-28T10:10:36;26.55;;;26.17;;
68942;SDS011;60852;52.190;4.422;2023-04-28T10:13:02;24.32;;;24.19;;
68942;SDS011;60852;52.190;4.422;2023-04-28T10:15:28;20.29;;;20.26;;
68942;SDS011;60852;52.190;4.422;2023-04-28T10:17:55;16.22;;;16.11;;
68942;SDS011;60852;52.190;4.422;2023-04-28T10:20:23;15.14;;;15.05;;
68942;SDS011;60852;52.190;4.422;2023-04-28T10:23:04;14.09;;;14.03;;
68942;SDS011;60852;52.190;4.422;2023-04-28T10:25:53;13.10;;;13.00;;
68942;SDS011;60852;52.190;4.422;2023-04-28T10:28:23;11.96;;;11.84;;
68942;SDS011;60852;52.190;4.422;2023-04-28T10:33:38;14.28;;;13.81;;
68942;SDS011;60852;52.190;4.422;2023-04-28T10:36:04;9.72;;;9.61;;
68942;SDS011;60852;52.190;4.422;2023-04-28T10:38:31;9.05;;;8.94;;
68942;SDS011;60852;52.190;4.422;2023-04-28T10:40:58;9.65;;;9.55;;
68942;SDS011;60852;52.190;4.422;2023-04-28T10:51:02;12.25;;;12.11;;
68942;SDS011;60852;52.190;4.422;2023-04-28T10:58:36;10.98;;;10.92;;
68942;SDS011;60852;52.190;4.422;2023-04-28T11:06:16;9.01;;;8.93;;
68942;SDS011;60852;52.190;4.422;2023-04-28T11:08:45;9.10;;;9.04;;
68942;SDS011;60852;52.190;4.422;2023-04-28T11:13:40;9.05;;;9.03;;
68942;SDS011;60852;52.190;4.422;2023-04-28T11:16:07;8.46;;;8.40;;
68942;SDS011;60852;52.190;4.422;2023-04-28T11:18:53;6.74;;;6.69;;
68942;SDS011;60852;52.190;4.422;2023-04-28T11:21:21;7.09;;;7.03;;
68942;SDS011;60852;52.190;4.422;2023-04-28T11:23:47;6.34;;;6.26;;
68942;SDS011;60852;52.190;4.422;2023-04-28T11:26:13;5.53;;;5.49;;
68942;SDS011;60852;52.190;4.422;2023-04-28T11:28:49;5.11;;;5.06;;
68942;SDS011;60852;52.190;4.422;2023-04-28T11:31:16;5.28;;;5.23;;
68942;SDS011;60852;52.190;4.422;2023-04-28T11:33:51;5.10;;;5.09;;
68942;SDS011;60852;52.190;4.422;2023-04-28T11:38:52;3.64;;;3.63;;
68942;SDS011;60852;52.190;4.422;2023-04-28T11:41:18;4.01;;;3.99;;
68942;SDS011;60852;52.190;4.422;2023-04-28T11:43:44;3.45;;;3.41;;
68942;SDS011;60852;52.190;4.422;2023-04-28T11:46:14;2.97;;;2.94;;
68942;SDS011;60852;52.190;4.422;2023-04-28T11:48:41;2.34;;;2.32;;
68942;SDS011;60852;52.190;4.422;2023-04-28T11:51:06;1.87;;;1.86;;
68942;SDS011;60852;52.190;4.422;2023-04-28T11:53:42;1.68;;;1.68;;
68942;SDS011;60852;52.190;4.422;2023-04-28T11:56:08;1.67;;;1.67;;
68942;SDS011;60852;52.190;4.422;2023-04-28T11:58:34;1.71;;;1.71;;
68942;SDS011;60852;52.190;4.422;2023-04-28T12:01:09;1.77;;;1.77;;
68942;SDS011;60852;52.190;4.422;2023-04-28T12:03:43;1.80;;;1.80;;
68942;SDS011;60852;52.190;4.422;2023-04-28T12:06:18;1.75;;;1.75;;
68942;SDS011;60852;52.190;4.422;2023-04-28T12:08:44;1.99;;;1.99;;
68942;SDS011;60852;52.190;4.422;2023-04-28T12:11:10;2.09;;;2.09;;
68942;SDS011;60852;52.190;4.422;2023-04-28T12:13:40;2.30;;;2.30;;
68942;SDS011;60852;52.190;4.422;2023-04-28T12:16:06;2.27;;;2.27;;
68942;SDS011;60852;52.190;4.422;2023-04-28T12:18:35;2.40;;;2.40;;
68942;SDS011;60852;52.190;4.422;2023-04-28T12:21:03;2.78;;;2.78;;
68942;SDS011;60852;52.190;4.422;2023-04-28T12:23:33;2.91;;;2.91;;
68942;SDS011;60852;52.190;4.422;2023-04-28T12:26:00;3.22;;;3.22;;
68942;SDS011;60852;52.190;4.422;2023-04-28T12:28:36;3.13;;;3.12;;
68942;SDS011;60852;52.190;4.422;2023-04-28T12:31:04;3.40;;;3.39;;
68942;SDS011;60852;52.190;4.422;2023-04-28T12:33:33;4.03;;;4.03;;
68942;SDS011;60852;52.190;4.422;2023-04-28T12:36:03;3.96;;;3.96;;
68942;SDS011;60852;52.190;4.422;2023-04-28T12:38:32;4.33;;;4.33;;
68942;SDS011;60852;52.190;4.422;2023-04-28T12:40:57;4.50;;;4.49;;
68942;SDS011;60852;52.190;4.422;2023-04-28T12:43:23;4.96;;;4.95;;
68942;SDS011;60852;52.190;4.422;2023-04-28T12:45:51;4.40;;;4.37;;
68942;SDS011;60852;52.190;4.422;2023-04-28T12:48:19;4.35;;;4.29;;
68942;SDS011;60852;52.190;4.422;2023-04-28T12:50:45;4.19;;;4.17;;
68942;SDS011;60852;52.190;4.422;2023-04-28T12:53:10;4.91;;;4.89;;
68942;SDS011;60852;52.190;4.422;2023-04-28T12:55:36;5.22;;;5.21;;
68942;SDS011;60852;52.190;4.422;2023-04-28T12:58:04;5.50;;;5.44;;
68942;SDS011;60852;52.190;4.422;2023-04-28T13:00:29;5.82;;;5.75;;
68942;SDS011;60852;52.190;4.422;2023-04-28T13:02:55;6.00;;;5.95;;
68942;SDS011;60852;52.190;4.422;2023-04-28T13:05:20;6.03;;;5.98;;
68942;SDS011;60852;52.190;4.422;2023-04-28T13:07:46;6.41;;;6.30;;
68942;SDS011;60852;52.190;4.422;2023-04-28T13:10:13;6.90;;;6.76;;
68942;SDS011;60852;52.190;4.422;2023-04-28T13:12:38;6.60;;;6.46;;
68942;SDS011;60852;52.190;4.422;2023-04-28T13:15:05;6.77;;;6.62;;
68942;SDS011;60852;52.190;4.422;2023-04-28T13:17:31;6.63;;;6.47;;
68942;SDS011;60852;52.190;4.422;2023-04-28T13:19:58;6.33;;;6.21;;
68942;SDS011;60852;52.190;4.422;2023-04-28T13:22:25;6.56;;;6.46;;
68942;SDS011;60852;52.190;4.422;2023-04-28T13:24:51;6.35;;;6.27;;
68942;SDS011;60852;52.190;4.422;2023-04-28T13:27:16;6.19;;;6.18;;
68942;SDS011;60852;52.190;4.422;2023-04-28T13:29:42;5.86;;;5.77;;
68942;SDS011;60852;52.190;4.422;2023-04-28T13:32:08;5.34;;;5.20;;
68942;SDS011;60852;52.190;4.422;2023-04-28T13:34:34;5.60;;;5.52;;
68942;SDS011;60852;52.190;4.422;2023-04-28T13:36:59;5.82;;;5.68;;
68942;SDS011;60852;52.190;4.422;2023-04-28T13:39:25;5.93;;;5.79;;
68942;SDS011;60852;52.190;4.422;2023-04-28T13:41:50;5.85;;;5.75;;
68942;SDS011;60852;52.190;4.422;2023-04-28T13:44:16;6.33;;;6.16;;
68942;SDS011;60852;52.190;4.422;2023-04-28T13:46:41;6.04;;;5.90;;
68942;SDS011;60852;52.190;4.422;2023-04-28T13:49:11;6.14;;;6.11;;
68942;SDS011;60852;52.190;4.422;2023-04-28T13:51:37;6.20;;;6.15;;
68942;SDS011;60852;52.190;4.422;2023-04-28T13:54:03;6.12;;;6.03;;
68942;SDS011;60852;52.190;4.422;2023-04-28T13:56:29;6.65;;;6.53;;
68942;SDS011;60852;52.190;4.422;2023-04-28T13:58:56;6.84;;;6.70;;
68942;SDS011;60852;52.190;4.422;2023-04-28T14:01:22;6.45;;;6.33;;
68942;SDS011;60852;52.190;4.422;2023-04-28T14:03:47;6.86;;;6.77;;
68942;SDS011;60852;52.190;4.422;2023-04-28T14:06:13;6.72;;;6.62;;
68942;SDS011;60852;52.190;4.422;2023-04-28T14:08:38;6.67;;;6.57;;
68942;SDS011;60852;52.190;4.422;2023-04-28T14:11:04;6.35;;;6.21;;
68942;SDS011;60852;52.190;4.422;2023-04-28T14:13:29;6.64;;;6.58;;
68942;SDS011;60852;52.190;4.422;2023-04-28T14:15:55;6.46;;;6.41;;
68942;SDS011;60852;52.190;4.422;2023-04-28T14:18:21;6.21;;;6.12;;
68942;SDS011;60852;52.190;4.422;2023-04-28T14:20:47;6.37;;;6.26;;
68942;SDS011;60852;52.190;4.422;2023-04-28T14:23:13;5.92;;;5.81;;
68942;SDS011;60852;52.190;4.422;2023-04-28T14:25:39;5.58;;;5.44;;
68942;SDS011;60852;52.190;4.422;2023-04-28T14:28:05;5.75;;;5.70;;
68942;SDS011;60852;52.190;4.422;2023-04-28T14:30:31;5.39;;;5.32;;
68942;SDS011;60852;52.190;4.422;2023-04-28T14:32:56;5.74;;;5.62;;
68942;SDS011;60852;52.190;4.422;2023-04-28T14:35:23;6.02;;;5.87;;
68942;SDS011;60852;52.190;4.422;2023-04-28T14:37:48;6.46;;;6.24;;
68942;SDS011;60852;52.190;4.422;2023-04-28T14:40:16;7.12;;;6.91;;
68942;SDS011;60852;52.190;4.422;2023-04-28T14:42:41;6.64;;;6.51;;
68942;SDS011;60852;52.190;4.422;2023-04-28T14:45:08;6.99;;;6.86;;
68942;SDS011;60852;52.190;4.422;2023-04-28T14:47:38;7.52;;;7.26;;
68942;SDS011;60852;52.190;4.422;2023-04-28T14:50:04;7.54;;;7.29;;
68942;SDS011;60852;52.190;4.422;2023-04-28T14:52:31;8.34;;;8.15;;
68942;SDS011;60852;52.190;4.422;2023-04-28T14:54:57;8.61;;;8.47;;
68942;SDS011;60852;52.190;4.422;2023-04-28T14:57:24;6.47;;;6.32;;